Archival Weather

Norman Y Mineta San Jose Intl

San Jose, California (KSJC)

Report from: Tuesday, September 19, 2023 1:53 AM PDT
Current time: Tuesday, July 16, 2024 2:52 AM PDT

Current weather – Weather history – Daily summaries
Weather forecast

Temperature16.7°C (62.1°F)
Dew point12.8°C (55.0°F)
Winds 4 kts (2.1 m/s, 4.6 mph) North-Northwest (330°)
Visibility10 mi. (16.1 km)
Clouds Sky clear
Altimeter30.00 in.Hg (1016 mB)
Relative humidity78 %
Density altitude320 ft. (98 m)
Sea-level pressure101.6 kPa (1016 mB, 30.00 in.Hg)
Remarks Fully automated report
Automated weather observing station with precipitation discriminator
Pressure rising more slowly
Flight conditions Visual Meteorological Conditions
Raw dataKSJC 190853Z AUTO 33004KT 10SM CLR 17/13 A3000 RMK AO2 SLP158 T01670128 51002
An error has occurred. This application may no longer respond until reloaded. Reload 🗙